Lawrenceville, NJ

20:19 EDT dnia 01-październik-2014 (GMT -0400)
University Heights | Change Station
CLOSE
Current Station
Stacja PWS
Location: Mercerville, NJ
n.p.m.: 60 ft
Najbliższa stacja pogodowa

Wysokość 60 ft 40.25 °N, 74.68 °W | Updated 3 minutes ago

pochmurno
pochmurno
64.8 ° F
Odczuwalna 64.8 ° F
Płn.
0.0
Wiatr zmienny Wiatr od PnPnWs
Gusts 1.0 mph

Dziś
Wysoka -- | Niska -- ° F
--% Prawdop. opadów
Wczoraj
Wysoka -- | Niska -- ° F
Precip. -- cali
6:55 AM 6:41 PM
Pierwsza kwadra, 52% visible
Ciśnienie 30.04 cali
Widzialność 10.0 mil
chmury pochmurno 2400 ft
Punkt rosy 58 ° F
Wilgotność 80%
Opady deszczu 0.00 cali
grubość pokrywy śnieżnej Niedostępne.
UV 0.0 z 12
Pyłki 2.20 z 12
Ozon Dobre
PM2.5 Umiarkowany
Flu Activity Niedostępne.
METAR KTTN 012353Z 06005KT 10SM OVC024 18/14 A3005 RMK AO2 SLP170 T01780139 10206 20178 53012

More Conditions Fewer Conditions

Ciśnienie 30.04 cali
Widzialność 10.0 mil
chmury pochmurno 2400 ft
Punkt rosy 58 ° F
Wilgotność 80%
Opady deszczu 0.00 cali
grubość pokrywy śnieżnej Niedostępne.
UV 0.0 z 12
Pyłki 2.20 z 12
Ozon Dobre
PM2.5 Umiarkowany
Flu Activity Niedostępne.
METAR KTTN 012353Z 06005KT 10SM OVC024 18/14 A3005 RMK AO2 SLP170 T01780139 10206 20178 53012

More Conditions Fewer Conditions

10-Day Weather Forecast

Almanac

Astronomia

Oct. 01, 2014 Wschód Zachów
Aktualny czas 06:55 EDT 18:41 EDT
Zmierzch cywilny 06:28 EDT 19:08 EDT
Zmierzch żeglarski 05:56 EDT 19:39 EDT
świt/zmierzch astronomiczny 05:24 EDT 20:11 EDT
Księżyc 13:54 EDT (10/1) Księżyc nie zachodzi
całkowite oświetlenie 12h 40m
Długość dnia
11h 45m
Tomorrow will be 2m 38s shorter.
Pierwsza kwadra, 52% of the Moon is Illuminated
Dziś
Pierwsza kwadra
Październik 8
Pełnia Księżyca
Październik 15
Ostatnia kwadra
Październik 23
Nowy
Październik 30
Pierwsza kwadra

Dzisiejsze ekstrema

State Highs State Lows

Community

WunderPhotos

Upload Photos

1,758,097 zdjęcia zostały przesłane!

WunderBlogs® & News

Nearby

Jakość powietrza

  Jakość powietrza czynnik AQ Zanieczyszczenie
Wczoraj Umiarkowany
PM2.5
Wczoraj Dobre
OZONE
Obecnie Umiarkowany
PM2.5
Obecnie Dobre
OZONE
Środa Dobre
PM2.5
Czwartek Dobre
PM2.5
Piątek Dobre
PM2.5
Sobota Dobre
PM2.5

Głębokość pokrywy śnieżnej

Station Depth n.p.m.
Brak zgłoszeń świeżych opadów śniegu.

Aktywność sejsmiczna

Miejscowość Distance Mag. Time & Date
No recent earthquake activity has been reported nearby.
Minimum magnitude displayed is 2.5.

Temperatury wody na wybrzeżu

Miejsce Temperatura
Sandy Hook, NJ 68.0 ° F
The Battery, NY 69.1 ° F
Bergen Point West Reach, NJ 69.1 ° F
Kings Point, NY 66.9 ° F

Najbliższa stacja pogodowa